createdAt,value
2024-04-17T00:02:05.888Z,76.95
2024-04-17T00:04:33.449Z,76.77
2024-04-17T00:07:05.763Z,76.89
2024-04-17T00:09:33.171Z,77.05
2024-04-17T00:12:00.491Z,77.08
2024-04-17T00:14:27.811Z,76.99
2024-04-17T00:16:55.582Z,76.89
2024-04-17T00:19:23.333Z,76.68
2024-04-17T00:21:50.992Z,76.89
2024-04-17T00:24:20.471Z,77.00
2024-04-17T00:26:47.835Z,76.93
2024-04-17T00:29:15.187Z,76.93
2024-04-17T00:31:42.848Z,76.89
2024-04-17T00:34:10.671Z,76.94
2024-04-17T00:36:37.975Z,77.49
2024-04-17T00:39:05.633Z,77.86
2024-04-17T00:41:36.490Z,77.90
2024-04-17T00:44:03.964Z,78.87
2024-04-17T00:46:32.289Z,79.43
2024-04-17T00:48:59.626Z,79.57
2024-04-17T00:51:26.923Z,79.40
2024-04-17T00:53:54.254Z,79.28
2024-04-17T00:56:21.730Z,79.80
2024-04-17T00:58:49.088Z,79.51
2024-04-17T01:01:16.827Z,79.23
2024-04-17T01:03:44.451Z,79.29
2024-04-17T01:06:11.992Z,79.18
2024-04-17T01:08:39.328Z,79.20
2024-04-17T01:11:07.014Z,79.17
2024-04-17T01:13:34.586Z,79.13
2024-04-17T01:16:02.106Z,78.86
2024-04-17T01:18:29.747Z,78.80
2024-04-17T01:20:59.473Z,78.49
2024-04-17T01:23:26.783Z,78.32
2024-04-17T01:25:54.477Z,78.30
2024-04-17T01:28:22.230Z,78.43
2024-04-17T01:30:49.905Z,78.58
2024-04-17T01:33:18.244Z,78.53
2024-04-17T01:35:46.124Z,78.50
2024-04-17T01:38:13.720Z,78.38
2024-04-17T01:40:41.068Z,78.44
2024-04-17T01:43:11.697Z,78.23
2024-04-17T01:45:43.110Z,78.08
2024-04-17T01:48:10.561Z,77.82
2024-04-17T01:50:39.368Z,77.71
2024-04-17T01:53:06.690Z,77.33
2024-04-17T01:55:34.348Z,77.52
2024-04-17T01:58:02.278Z,78.24
2024-04-17T02:00:29.790Z,78.22
2024-04-17T02:02:57.365Z,78.15
2024-04-17T02:05:24.793Z,77.75
2024-04-17T02:07:52.255Z,77.90
2024-04-17T02:10:19.719Z,78.15
2024-04-17T02:12:47.069Z,78.38
2024-04-17T02:15:14.482Z,78.21
2024-04-17T02:17:42.041Z,78.01
2024-04-17T02:20:09.687Z,77.92
2024-04-17T02:22:37.047Z,78.20
2024-04-17T02:25:04.825Z,78.40
2024-04-17T02:27:32.148Z,78.41
2024-04-17T02:29:59.493Z,78.39
2024-04-17T02:32:27.562Z,78.14
2024-04-17T02:34:55.933Z,78.45
2024-04-17T02:37:23.612Z,78.53
2024-04-17T02:39:51.034Z,78.24
2024-04-17T02:42:18.513Z,78.05
2024-04-17T02:44:46.659Z,77.95
2024-04-17T02:47:14.208Z,78.00
2024-04-17T02:49:42.842Z,78.26
2024-04-17T02:52:10.359Z,78.29
2024-04-17T02:54:37.790Z,78.16
2024-04-17T02:57:07.580Z,78.10
2024-04-17T02:59:35.068Z,78.41
2024-04-17T03:02:02.462Z,78.56
2024-04-17T03:04:29.874Z,78.56
2024-04-17T03:06:57.297Z,78.47
2024-04-17T03:09:24.939Z,78.37
2024-04-17T03:11:52.931Z,78.32
2024-04-17T03:14:20.494Z,78.43
2024-04-17T03:16:48.482Z,78.36
2024-04-17T03:19:16.139Z,78.36
2024-04-17T03:21:43.502Z,78.50
2024-04-17T03:24:11.324Z,78.66
2024-04-17T03:26:39.089Z,78.98
2024-04-17T03:29:06.460Z,79.10
2024-04-17T03:31:34.089Z,79.22
2024-04-17T03:34:01.420Z,78.99
2024-04-17T03:36:28.973Z,78.80
2024-04-17T03:38:56.691Z,78.65
2024-04-17T03:41:24.599Z,78.61
2024-04-17T03:43:51.953Z,78.55
2024-04-17T03:46:19.397Z,78.87
2024-04-17T03:48:46.774Z,79.00
2024-04-17T03:51:14.177Z,78.83
2024-04-17T03:53:41.675Z,78.71
2024-04-17T03:56:08.963Z,78.60
2024-04-17T03:58:37.117Z,78.57
2024-04-17T04:01:04.489Z,78.30
2024-04-17T04:03:32.035Z,78.22
2024-04-17T04:06:00.382Z,78.36
2024-04-17T04:08:28.104Z,78.43
2024-04-17T04:10:55.605Z,78.78
2024-04-17T04:13:25.205Z,79.07
2024-04-17T04:15:52.937Z,79.25
2024-04-17T04:18:22.841Z,79.31
2024-04-17T04:20:50.772Z,79.34
2024-04-17T04:23:18.248Z,79.58
2024-04-17T04:25:45.922Z,79.58
2024-04-17T04:28:13.440Z,79.56
2024-04-17T04:30:42.317Z,79.77
2024-04-17T04:33:09.994Z,79.69
2024-04-17T04:35:37.896Z,79.51
2024-04-17T04:38:05.466Z,79.47
2024-04-17T04:40:33.701Z,79.62
2024-04-17T04:43:01.152Z,79.84
2024-04-17T04:45:29.569Z,79.82
2024-04-17T04:47:57.079Z,79.99
2024-04-17T04:50:24.732Z,79.83
2024-04-17T04:52:52.333Z,79.70
2024-04-17T04:55:19.930Z,79.62
2024-04-17T04:57:48.686Z,79.38
2024-04-17T05:00:16.263Z,79.30
2024-04-17T05:02:43.645Z,79.49
2024-04-17T05:05:11.596Z,79.60
2024-04-17T05:07:39.547Z,79.63
2024-04-17T05:10:07.097Z,79.63
2024-04-17T05:12:34.554Z,79.58
2024-04-17T05:15:02.154Z,79.77
2024-04-17T05:17:29.792Z,79.81
2024-04-17T05:19:57.378Z,79.83
2024-04-17T05:22:24.875Z,80.12
2024-04-17T05:24:52.276Z,79.82
2024-04-17T05:27:19.748Z,79.76
2024-04-17T05:29:47.460Z,79.77
2024-04-17T05:32:15.305Z,79.70
2024-04-17T05:34:42.764Z,79.55
2024-04-17T05:37:10.969Z,79.41
2024-04-17T05:39:38.261Z,79.41
2024-04-17T05:42:06.527Z,79.25
2024-04-17T05:44:34.372Z,79.11
2024-04-17T05:47:01.988Z,78.87
2024-04-17T05:49:29.701Z,78.85
2024-04-17T05:51:57.624Z,78.82
2024-04-17T05:54:24.961Z,79.01
2024-04-17T05:56:52.454Z,78.73
2024-04-17T05:59:19.850Z,78.91
2024-04-17T06:01:47.168Z,78.47
2024-04-17T06:04:14.589Z,78.43
2024-04-17T06:06:42.085Z,78.38
2024-04-17T06:09:09.443Z,78.41
2024-04-17T06:11:36.798Z,78.10
2024-04-17T06:14:07.190Z,78.32
2024-04-17T06:16:36.352Z,78.50
2024-04-17T06:19:03.872Z,78.60
2024-04-17T06:21:31.843Z,78.79
2024-04-17T06:23:59.276Z,78.69
2024-04-17T06:26:26.727Z,79.03
2024-04-17T06:28:54.236Z,79.05
2024-04-17T06:31:22.409Z,78.94
2024-04-17T06:33:49.757Z,78.87
2024-04-17T06:36:17.097Z,78.73
2024-04-17T06:38:46.494Z,78.68
2024-04-17T06:41:15.593Z,78.60
2024-04-17T06:43:43.299Z,78.23
2024-04-17T06:46:12.704Z,78.19
2024-04-17T06:48:40.080Z,78.32
2024-04-17T06:51:07.450Z,78.52
2024-04-17T06:53:34.783Z,78.39
2024-04-17T06:56:02.296Z,78.28
2024-04-17T06:58:29.820Z,78.51
2024-04-17T07:00:57.733Z,78.56
2024-04-17T07:03:25.297Z,78.30
2024-04-17T07:05:52.703Z,78.30
2024-04-17T07:08:20.223Z,78.43
2024-04-17T07:10:47.625Z,78.49
2024-04-17T07:13:15.217Z,78.58
2024-04-17T07:15:43.898Z,78.55
2024-04-17T07:18:11.400Z,78.82
2024-04-17T07:20:38.807Z,79.02
2024-04-17T07:23:06.242Z,79.54
2024-04-17T07:25:33.696Z,79.57
2024-04-17T07:28:01.057Z,79.76
2024-04-17T07:30:28.407Z,79.79
2024-04-17T07:32:58.493Z,80.11
2024-04-17T07:35:26.891Z,80.51
2024-04-17T07:37:54.208Z,80.56
2024-04-17T07:40:22.714Z,80.16
2024-04-17T07:42:50.151Z,80.16
2024-04-17T07:45:17.843Z,79.95
2024-04-17T07:47:46.285Z,80.15
2024-04-17T07:50:13.813Z,79.63
2024-04-17T07:52:41.509Z,79.70
2024-04-17T07:55:08.931Z,79.69
2024-04-17T07:57:36.428Z,79.46
2024-04-17T08:00:03.758Z,79.11
2024-04-17T08:02:32.260Z,79.02
2024-04-17T08:04:59.925Z,78.72
2024-04-17T08:07:27.585Z,78.01
2024-04-17T08:09:55.169Z,77.50
2024-04-17T08:12:22.613Z,77.83
2024-04-17T08:14:49.978Z,77.97
2024-04-17T08:17:17.516Z,78.32
2024-04-17T08:19:45.060Z,78.11
2024-04-17T08:22:13.623Z,78.32
2024-04-17T08:24:41.245Z,78.03
2024-04-17T08:27:09.168Z,77.31
2024-04-17T08:29:36.590Z,77.07
2024-04-17T08:32:03.963Z,76.60
2024-04-17T08:34:31.511Z,76.64
2024-04-17T08:37:00.792Z,76.69
2024-04-17T08:39:28.302Z,76.52
2024-04-17T08:41:55.752Z,76.27
2024-04-17T08:44:23.161Z,76.28
2024-04-17T08:46:50.723Z,76.01
2024-04-17T08:49:18.263Z,75.61
2024-04-17T08:51:46.818Z,75.26
2024-04-17T08:54:14.181Z,75.52
2024-04-17T08:56:42.260Z,74.99
2024-04-17T08:59:09.778Z,73.85
2024-04-17T09:01:37.221Z,73.65
2024-04-17T09:04:04.972Z,73.66
2024-04-17T09:06:32.228Z,72.88
2024-04-17T09:08:59.672Z,73.03
2024-04-17T09:11:27.355Z,73.46
2024-04-17T09:13:55.202Z,74.22
2024-04-17T09:16:22.543Z,75.36
2024-04-17T09:18:50.041Z,76.32
2024-04-17T09:21:17.479Z,76.82
2024-04-17T09:23:45.001Z,76.76
2024-04-17T09:26:14.741Z,76.03
2024-04-17T09:28:42.197Z,77.59
2024-04-17T09:31:09.583Z,79.01
2024-04-17T09:33:37.030Z,80.30
2024-04-17T09:36:04.918Z,80.56
2024-04-17T09:38:32.295Z,81.32
2024-04-17T09:40:59.744Z,81.41
2024-04-17T09:43:29.704Z,82.88
2024-04-17T09:45:58.781Z,82.35
2024-04-17T09:48:26.296Z,82.56
2024-04-17T09:50:53.551Z,82.92
2024-04-17T09:53:31.377Z,83.49
2024-04-17T09:56:04.074Z,83.58
2024-04-17T09:58:33.556Z,83.90
2024-04-17T10:01:01.771Z,84.01
2024-04-17T10:03:29.379Z,84.31
2024-04-17T10:05:57.097Z,84.69
2024-04-17T10:08:24.454Z,84.43
2024-04-17T10:10:52.273Z,84.43
2024-04-17T10:13:19.756Z,84.27
2024-04-17T10:15:47.112Z,84.15
2024-04-17T10:18:15.891Z,83.89
2024-04-17T10:20:46.170Z,84.43
2024-04-17T10:23:13.461Z,83.97
2024-04-17T10:25:41.045Z,84.14
2024-04-17T10:28:08.358Z,83.88
2024-04-17T10:30:35.748Z,83.78
2024-04-17T10:33:03.489Z,83.30
2024-04-17T10:35:33.728Z,83.53
2024-04-17T10:38:04.625Z,83.33
2024-04-17T10:40:32.209Z,82.04
2024-04-17T10:43:00.038Z,81.11
2024-04-17T10:45:29.005Z,81.32
2024-04-17T10:47:57.763Z,80.58
2024-04-17T10:50:25.313Z,81.13
2024-04-17T10:52:53.455Z,80.67
2024-04-17T10:55:22.930Z,80.16
2024-04-17T10:57:50.332Z,80.34
2024-04-17T11:00:17.645Z,80.62
2024-04-17T11:02:45.123Z,79.43
2024-04-17T11:05:12.638Z,79.41
2024-04-17T11:07:40.054Z,79.43
2024-04-17T11:10:07.712Z,77.34
2024-04-17T11:12:35.104Z,77.70
2024-04-17T11:15:03.255Z,77.36
2024-04-17T11:17:30.866Z,76.46
2024-04-17T11:19:58.719Z,75.19
2024-04-17T11:22:26.293Z,75.59
2024-04-17T11:24:59.064Z,76.33
2024-04-17T11:27:26.502Z,74.71
2024-04-17T11:29:54.077Z,75.16
2024-04-17T11:32:21.683Z,76.40
2024-04-17T11:34:49.252Z,76.54
2024-04-17T11:37:16.597Z,76.23
2024-04-17T11:39:47.697Z,75.04
2024-04-17T11:42:16.612Z,74.68
2024-04-17T11:44:44.249Z,74.97
2024-04-17T11:47:11.959Z,74.16
2024-04-17T11:49:39.537Z,74.15
2024-04-17T11:52:06.937Z,74.54
2024-04-17T11:54:34.249Z,74.43
2024-04-17T11:57:04.591Z,74.87
2024-04-17T11:59:32.066Z,75.23
2024-04-17T12:01:59.806Z,75.55
2024-04-17T12:04:30.965Z,76.04
2024-04-17T12:06:59.540Z,75.46
2024-04-17T12:09:31.084Z,75.13
2024-04-17T12:11:59.132Z,74.93
2024-04-17T12:14:26.815Z,74.69
2024-04-17T12:16:54.166Z,73.70
2024-04-17T12:19:21.618Z,72.74
2024-04-17T12:21:48.974Z,73.10
2024-04-17T12:24:22.755Z,72.62
2024-04-17T12:26:53.186Z,72.34
2024-04-17T12:29:20.822Z,73.84
2024-04-17T12:31:48.525Z,74.23
2024-04-17T12:34:15.992Z,74.31
2024-04-17T12:36:43.572Z,74.54
2024-04-17T12:39:13.993Z,74.57
2024-04-17T12:41:41.271Z,74.20
2024-04-17T12:44:08.847Z,75.22
2024-04-17T12:46:36.501Z,75.25
2024-04-17T12:49:07.112Z,74.58
2024-04-17T12:51:34.550Z,74.50
2024-04-17T12:54:01.924Z,74.49
2024-04-17T12:56:29.277Z,75.17
2024-04-17T12:58:57.119Z,75.40
2024-04-17T13:01:24.507Z,75.28
2024-04-17T13:03:52.020Z,75.95
2024-04-17T13:06:19.821Z,75.94
2024-04-17T13:08:47.176Z,76.56
2024-04-17T13:11:15.586Z,76.76
2024-04-17T13:13:43.412Z,77.68
2024-04-17T13:16:11.011Z,78.17
2024-04-17T13:18:39.978Z,78.07
2024-04-17T13:21:07.853Z,78.20
2024-04-17T13:23:35.525Z,78.48
2024-04-17T13:26:03.163Z,78.52
2024-04-17T13:28:34.224Z,79.13
2024-04-17T13:31:04.254Z,79.05
2024-04-17T13:33:31.765Z,79.17
2024-04-17T13:35:59.642Z,79.14
2024-04-17T13:38:26.979Z,79.76
2024-04-17T13:40:54.366Z,79.19
2024-04-17T13:43:22.236Z,79.32
2024-04-17T13:45:49.838Z,79.27
2024-04-17T13:48:17.337Z,78.65
2024-04-17T13:50:45.244Z,78.55
2024-04-17T13:53:12.839Z,77.07
2024-04-17T13:55:40.379Z,77.18
2024-04-17T13:58:07.761Z,75.01
2024-04-17T14:00:35.422Z,74.55
2024-04-17T14:03:05.249Z,73.24
2024-04-17T14:05:32.681Z,73.15
2024-04-17T14:08:00.674Z,73.50
2024-04-17T14:10:30.184Z,72.80
2024-04-17T14:12:58.298Z,72.05
2024-04-17T14:15:26.098Z,72.42
2024-04-17T14:17:53.453Z,72.09
2024-04-17T14:20:20.777Z,72.66
2024-04-17T14:22:48.177Z,73.08
2024-04-17T14:25:15.620Z,72.47
2024-04-17T14:27:43.034Z,72.96
2024-04-17T14:30:11.196Z,73.22
2024-04-17T14:32:38.942Z,73.36
2024-04-17T14:35:07.022Z,73.63
2024-04-17T14:37:34.478Z,73.65
2024-04-17T14:40:02.649Z,73.94
2024-04-17T14:42:29.973Z,74.00
2024-04-17T14:45:00.625Z,74.14
2024-04-17T14:47:28.587Z,73.29
2024-04-17T14:49:57.126Z,75.73
2024-04-17T14:52:24.729Z,73.33
2024-04-17T14:54:52.232Z,68.53
2024-04-17T14:57:20.716Z,68.77
2024-04-17T14:59:48.185Z,69.87
2024-04-17T15:02:18.009Z,70.03
2024-04-17T15:04:45.474Z,70.06
2024-04-17T15:07:12.929Z,70.51
2024-04-17T15:09:40.835Z,70.90
2024-04-17T15:12:08.248Z,70.02
2024-04-17T15:14:37.241Z,69.48
2024-04-17T15:17:04.585Z,69.89
2024-04-17T15:19:33.290Z,69.79
2024-04-17T15:22:01.104Z,70.14
2024-04-17T15:24:28.577Z,70.26
2024-04-17T15:26:58.597Z,69.77
2024-04-17T15:29:25.945Z,69.77
2024-04-17T15:31:53.281Z,69.88
2024-04-17T15:34:20.855Z,69.98
2024-04-17T15:36:48.285Z,69.82
2024-04-17T15:39:15.682Z,69.74
2024-04-17T15:41:43.547Z,70.49
2024-04-17T15:44:10.964Z,70.47
2024-04-17T15:46:38.525Z,70.52
2024-04-17T15:49:05.987Z,70.36
2024-04-17T15:51:33.554Z,70.38
2024-04-17T15:54:01.046Z,70.59
2024-04-17T15:56:28.928Z,70.05
2024-04-17T15:58:56.390Z,69.95
2024-04-17T16:01:24.000Z,70.15
2024-04-17T16:03:53.009Z,70.11
2024-04-17T16:06:22.880Z,69.15
2024-04-17T16:08:51.667Z,69.55
2024-04-17T16:11:23.610Z,69.41
2024-04-17T16:13:51.470Z,69.34
2024-04-17T16:16:19.351Z,69.55
2024-04-17T16:18:47.136Z,68.96
2024-04-17T16:21:15.341Z,69.08
2024-04-17T16:23:43.190Z,68.86
2024-04-17T16:26:10.672Z,68.88
2024-04-17T16:28:38.766Z,68.74
2024-04-17T16:31:09.249Z,69.23
2024-04-17T16:33:38.522Z,69.47
2024-04-17T16:36:05.962Z,70.00
2024-04-17T16:38:33.580Z,70.39
2024-04-17T16:41:03.292Z,71.01
2024-04-17T16:43:30.640Z,71.27
2024-04-17T16:45:57.896Z,71.77
2024-04-17T16:48:25.380Z,71.96
2024-04-17T16:50:52.779Z,72.22
2024-04-17T16:53:20.358Z,72.20
2024-04-17T16:55:47.877Z,72.63
2024-04-17T16:58:16.220Z,73.05
2024-04-17T17:00:43.584Z,73.18
2024-04-17T17:03:11.429Z,73.23
2024-04-17T17:05:39.058Z,73.39
2024-04-17T17:08:07.520Z,73.56
2024-04-17T17:10:34.944Z,73.86
2024-04-17T17:13:02.994Z,74.17
2024-04-17T17:15:31.291Z,74.61
2024-04-17T17:17:59.154Z,74.92
2024-04-17T17:20:26.490Z,74.96
2024-04-17T17:22:54.371Z,75.03
2024-04-17T17:25:22.160Z,75.14
2024-04-17T17:27:49.477Z,75.36
2024-04-17T17:30:16.882Z,75.76
2024-04-17T17:32:44.592Z,75.99
2024-04-17T17:35:12.013Z,76.25
2024-04-17T17:37:39.417Z,76.43
2024-04-17T17:40:07.157Z,76.62
2024-04-17T17:42:34.891Z,76.91
2024-04-17T17:45:02.924Z,77.21
2024-04-17T17:47:30.709Z,77.11
2024-04-17T17:49:58.421Z,77.25
2024-04-17T17:52:27.319Z,77.29
2024-04-17T17:54:57.993Z,77.51
2024-04-17T17:57:25.452Z,78.16
2024-04-17T17:59:53.156Z,78.75
2024-04-17T18:02:20.731Z,79.23
2024-04-17T18:04:48.608Z,79.32
2024-04-17T18:07:16.575Z,79.44
2024-04-17T18:09:44.409Z,79.77
2024-04-17T18:12:14.665Z,80.39
2024-04-17T18:14:42.354Z,80.82
2024-04-17T18:17:09.898Z,81.26
2024-04-17T18:19:37.371Z,81.64
2024-04-17T18:22:05.019Z,81.83
2024-04-17T18:24:32.419Z,82.03
2024-04-17T18:26:59.893Z,82.27
2024-04-17T18:29:27.188Z,82.72
2024-04-17T18:31:54.925Z,83.13
2024-04-17T18:34:22.602Z,83.23
2024-04-17T18:36:53.113Z,83.11
2024-04-17T18:39:20.583Z,83.45
2024-04-17T18:41:48.632Z,83.52
2024-04-17T18:44:16.399Z,83.50
2024-04-17T18:46:49.311Z,83.45
2024-04-17T18:49:16.717Z,83.52
2024-04-17T18:51:45.649Z,83.39
2024-04-17T18:54:13.271Z,83.43
2024-04-17T18:56:40.639Z,83.53
2024-04-17T18:59:08.070Z,83.72
2024-04-17T19:01:35.619Z,83.93
2024-04-17T19:04:03.232Z,84.05
2024-04-17T19:06:31.112Z,84.12
2024-04-17T19:08:59.376Z,84.25
2024-04-17T19:11:26.671Z,84.13
2024-04-17T19:13:54.269Z,84.17
2024-04-17T19:16:22.215Z,84.38
2024-04-17T19:18:50.192Z,84.34
2024-04-17T19:21:18.214Z,84.40
2024-04-17T19:23:48.942Z,84.42
2024-04-17T19:26:17.408Z,84.55
2024-04-17T19:28:45.360Z,84.58
2024-04-17T19:31:13.485Z,84.57
2024-04-17T19:33:41.013Z,84.63
2024-04-17T19:36:09.684Z,84.73
2024-04-17T19:38:38.129Z,84.73
2024-04-17T19:41:07.268Z,84.68
2024-04-17T19:43:34.977Z,84.73
2024-04-17T19:46:02.638Z,84.64
2024-04-17T19:48:30.787Z,84.71
2024-04-17T19:50:59.229Z,84.83
2024-04-17T19:53:26.957Z,84.71
2024-04-17T19:55:54.465Z,84.57
2024-04-17T19:58:22.419Z,84.63
2024-04-17T20:00:49.868Z,84.75
2024-04-17T20:03:21.181Z,84.76
2024-04-17T20:05:48.694Z,84.83
2024-04-17T20:08:16.441Z,85.06
2024-04-17T20:10:43.723Z,85.15
2024-04-17T20:13:13.407Z,85.39
2024-04-17T20:15:43.024Z,85.34
2024-04-17T20:18:14.605Z,85.38
2024-04-17T20:20:42.587Z,85.68
2024-04-17T20:23:09.978Z,85.69
2024-04-17T20:25:37.527Z,85.79
2024-04-17T20:28:05.446Z,85.89
2024-04-17T20:30:33.096Z,85.88
2024-04-17T20:33:01.952Z,85.76
2024-04-17T20:35:29.835Z,85.86
2024-04-17T20:37:57.165Z,85.91
2024-04-17T20:40:25.071Z,85.63
2024-04-17T20:42:52.610Z,85.63
2024-04-17T20:45:20.457Z,85.54
2024-04-17T20:47:48.280Z,85.59
2024-04-17T20:50:15.882Z,85.82
2024-04-17T20:52:43.257Z,85.89
2024-04-17T20:55:10.629Z,85.91
2024-04-17T20:57:38.443Z,86.05
2024-04-17T21:00:06.004Z,86.12
2024-04-17T21:02:33.610Z,85.97
2024-04-17T21:05:02.508Z,85.85
2024-04-17T21:07:31.220Z,86.08
2024-04-17T21:09:58.920Z,86.30
2024-04-17T21:12:26.306Z,86.40
2024-04-17T21:14:53.870Z,86.41
2024-04-17T21:17:21.501Z,86.41
2024-04-17T21:19:49.030Z,86.47
2024-04-17T21:22:16.850Z,86.45
2024-04-17T21:24:44.276Z,86.55
2024-04-17T21:27:11.858Z,86.59
2024-04-17T21:29:40.550Z,86.64
2024-04-17T21:32:07.981Z,86.70
2024-04-17T21:34:35.959Z,86.80
2024-04-17T21:37:03.431Z,86.89
2024-04-17T21:39:31.594Z,86.95
2024-04-17T21:41:58.915Z,86.97
2024-04-17T21:44:26.246Z,86.92
2024-04-17T21:46:55.395Z,86.94
2024-04-17T21:49:22.763Z,86.88
2024-04-17T21:51:50.224Z,86.78
2024-04-17T21:54:20.094Z,86.62
2024-04-17T21:56:47.546Z,86.54
2024-04-17T21:59:14.978Z,86.64
2024-04-17T22:01:45.963Z,86.64
2024-04-17T22:04:14.252Z,86.72
2024-04-17T22:06:43.825Z,86.77
2024-04-17T22:09:11.465Z,86.85
2024-04-17T22:11:38.836Z,86.81
2024-04-17T22:14:06.241Z,86.90
2024-04-17T22:16:33.535Z,86.88
2024-04-17T22:19:00.897Z,86.94
2024-04-17T22:21:28.332Z,87.05
2024-04-17T22:23:56.182Z,87.00
2024-04-17T22:26:23.499Z,86.85
2024-04-17T22:28:50.973Z,86.60
2024-04-17T22:31:18.264Z,86.16
2024-04-17T22:33:45.738Z,86.23
2024-04-17T22:36:13.593Z,86.12
2024-04-17T22:38:40.927Z,86.06
2024-04-17T22:41:08.324Z,86.05
2024-04-17T22:43:35.767Z,85.73
2024-04-17T22:46:03.648Z,85.64
2024-04-17T22:48:31.055Z,85.59
2024-04-17T22:50:58.664Z,85.31
2024-04-17T22:53:26.055Z,85.28
2024-04-17T22:55:53.578Z,85.33
2024-04-17T22:58:20.866Z,85.05
2024-04-17T23:00:48.849Z,84.72
2024-04-17T23:03:16.613Z,84.44
2024-04-17T23:05:44.390Z,83.50
2024-04-17T23:08:11.840Z,81.57
2024-04-17T23:10:39.305Z,81.64
2024-04-17T23:13:08.284Z,81.76
2024-04-17T23:15:35.727Z,81.53
2024-04-17T23:18:03.174Z,81.39
2024-04-17T23:20:31.918Z,81.31
2024-04-17T23:22:59.267Z,80.97
2024-04-17T23:25:29.845Z,81.03
2024-04-17T23:27:58.217Z,80.45
2024-04-17T23:30:25.600Z,80.46
2024-04-17T23:32:53.368Z,80.54
2024-04-17T23:35:20.811Z,80.66
2024-04-17T23:37:48.204Z,80.61
2024-04-17T23:40:15.574Z,80.72
2024-04-17T23:42:43.051Z,80.80
2024-04-17T23:45:10.821Z,80.59
2024-04-17T23:47:40.293Z,81.08
2024-04-17T23:50:07.938Z,81.33
2024-04-17T23:52:35.365Z,81.51
2024-04-17T23:55:02.901Z,81.81
2024-04-17T23:57:30.471Z,82.64
2024-04-17T23:59:57.867Z,83.44
